Time;durP1;ratioP1;P1;durP2;ratioP2;P2;SDS_P1;SDS_P2;PMS_P1;PMS_P2;Temp;Humidity;BMP_temperature;BMP_pressure;BME280_temperature;BME280_humidity;BME280_pressure;Samples;Min_cycle;Max_cycle;Signal;HPM_P1;HPM_P2
2022/12/13 00:00:40;;;;;;;56.93;27.13;;;-0.60;99.90;;;;;;5066879;28;20221;-75
2022/12/13 00:03:07;;;;;;;57.60;26.93;;;-0.60;99.90;;;;;;5073892;28;20587;-75
2022/12/13 00:05:33;;;;;;;56.83;26.00;;;-0.60;99.90;;;;;;5081137;28;20182;-76
2022/12/13 00:08:00;;;;;;;56.70;28.33;;;-0.60;99.90;;;;;;5070947;28;20293;-75
2022/12/13 00:10:26;;;;;;;55.80;24.83;;;-0.60;99.90;;;;;;5071247;28;20186;-75
2022/12/13 00:12:51;;;;;;;53.40;24.97;;;-0.60;99.90;;;;;;5070021;28;20213;-77
2022/12/13 00:15:17;;;;;;;52.90;24.93;;;-0.60;99.90;;;;;;5061585;28;20179;-79
2022/12/13 00:17:44;;;;;;;62.77;26.20;;;-0.60;99.90;;;;;;5055782;28;20607;-75
2022/12/13 00:20:10;;;;;;;51.17;24.40;;;-0.70;99.90;;;;;;5066922;28;20178;-78
2022/12/13 00:22:36;;;;;;;54.93;24.90;;;-0.70;99.90;;;;;;5074119;28;20213;-75
2022/12/13 00:25:03;;;;;;;56.67;24.70;;;-0.70;99.90;;;;;;5071810;28;20199;-77
2022/12/13 00:27:30;;;;;;;54.03;25.50;;;-0.70;99.90;;;;;;5063103;28;20748;-75
2022/12/13 00:29:56;;;;;;;50.53;24.03;;;-0.70;99.90;;;;;;5072482;28;20182;-76
2022/12/13 00:32:21;;;;;;;52.33;24.50;;;-0.60;99.90;;;;;;5072652;28;20205;-76
2022/12/13 00:34:48;;;;;;;49.93;23.63;;;-0.70;99.90;;;;;;5072877;28;20218;-75
2022/12/13 00:37:14;;;;;;;47.73;22.80;;;-0.70;99.90;;;;;;5072132;28;20595;-76
2022/12/13 00:39:40;;;;;;;48.97;21.30;;;-0.70;99.90;;;;;;5071948;28;20175;-75
2022/12/13 00:42:05;;;;;;;48.70;23.43;;;-0.70;99.90;;;;;;5073418;28;20547;-75
2022/12/13 00:44:31;;;;;;;58.90;24.73;;;-0.70;99.90;;;;;;5071397;28;20270;-75
2022/12/13 00:46:57;;;;;;;52.67;22.73;;;-0.70;99.90;;;;;;5083376;28;20179;-76
2022/12/13 00:49:24;;;;;;;50.17;21.83;;;-0.70;99.90;;;;;;5065761;28;20433;-75
2022/12/13 00:51:50;;;;;;;57.53;25.37;;;-0.70;99.90;;;;;;5072603;28;20233;-75
2022/12/13 00:54:16;;;;;;;50.60;23.87;;;-0.70;99.90;;;;;;5072427;28;20210;-77
2022/12/13 00:56:42;;;;;;;49.70;23.20;;;-0.70;99.90;;;;;;5073431;28;20555;-75
2022/12/13 00:59:11;;;;;;;55.57;24.50;;;-0.70;99.90;;;;;;5072498;28;20607;-77
2022/12/13 01:01:37;;;;;;;48.43;22.30;;;-0.70;99.90;;;;;;5066693;28;20193;-75
2022/12/13 01:04:04;;;;;;;46.73;21.67;;;-0.80;99.90;;;;;;5071944;28;20191;-83
2022/12/13 01:06:36;;;;;;;49.87;22.70;;;-0.80;99.90;;;;;;5090742;28;20260;-75
2022/12/13 01:09:04;;;;;;;52.03;22.40;;;-0.80;99.90;;;;;;5090064;28;20162;-81
2022/12/13 01:11:30;;;;;;;50.03;23.10;;;-0.80;99.90;;;;;;5071012;28;20219;-74
2022/12/13 01:13:56;;;;;;;51.47;22.77;;;-0.80;99.90;;;;;;5067385;28;20745;-82
2022/12/13 01:16:22;;;;;;;44.20;20.97;;;-0.90;99.90;;;;;;5071249;28;20335;-77
2022/12/13 01:18:47;;;;;;;45.50;22.20;;;-0.90;99.90;;;;;;5072897;28;20208;-77
2022/12/13 01:21:16;;;;;;;49.03;22.07;;;-0.90;99.90;;;;;;5070308;28;20183;-76
2022/12/13 01:23:43;;;;;;;49.53;22.37;;;-0.90;99.90;;;;;;5072787;28;20218;-76
2022/12/13 01:26:11;;;;;;;52.60;22.23;;;-0.90;99.90;;;;;;5071209;28;20226;-76
2022/12/13 01:28:38;;;;;;;50.70;22.40;;;-0.90;99.90;;;;;;5072997;28;20210;-76
2022/12/13 01:31:07;;;;;;;49.83;23.10;;;-1.00;99.90;;;;;;5054604;28;20191;-76
2022/12/13 01:33:33;;;;;;;50.40;21.13;;;-0.90;99.90;;;;;;5052681;28;20214;-76
2022/12/13 01:36:01;;;;;;;45.10;21.67;;;-1.00;99.90;;;;;;5066822;28;20190;-76
2022/12/13 01:38:27;;;;;;;48.50;21.87;;;-0.90;99.90;;;;;;5071477;28;20273;-79
2022/12/13 01:40:59;;;;;;;48.50;21.97;;;-1.00;99.90;;;;;;5067924;28;20269;-76
2022/12/13 01:43:50;;;;;;;50.03;22.30;;;-0.90;99.90;;;;;;5068443;28;20194;-76
2022/12/13 01:46:17;;;;;;;45.23;21.43;;;-1.00;99.90;;;;;;5069911;28;20258;-75
2022/12/13 01:48:52;;;;;;;49.27;21.90;;;-1.00;99.90;;;;;;5072650;28;20185;-76
2022/12/13 01:51:22;;;;;;;46.40;20.80;;;-0.90;99.90;;;;;;5071148;28;20174;-75
2022/12/13 01:53:50;;;;;;;54.47;22.07;;;-1.00;99.90;;;;;;5071365;28;20540;-75
2022/12/13 01:56:26;;;;;;;46.50;21.00;;;-1.00;99.90;;;;;;5070695;28;20175;-75
2022/12/13 01:58:54;;;;;;;51.67;21.30;;;-1.00;99.90;;;;;;5072566;28;20266;-75
2022/12/13 02:01:21;;;;;;;48.57;21.60;;;-1.00;99.90;;;;;;5066247;28;20193;-75
2022/12/13 02:03:47;;;;;;;49.20;23.10;;;-1.10;99.90;;;;;;5069004;28;20269;-77
2022/12/13 02:06:36;;;;;;;46.03;21.10;;;-1.10;99.90;;;;;;5072906;28;20277;-75
2022/12/13 02:09:04;;;;;;;47.43;21.73;;;-1.10;99.90;;;;;;5072100;28;20169;-75
2022/12/13 02:11:30;;;;;;;51.73;21.47;;;-1.10;99.90;;;;;;5069680;28;20274;-77
2022/12/13 02:13:55;;;;;;;47.63;22.33;;;-1.10;99.90;;;;;;5088078;28;20302;-75
2022/12/13 02:16:58;;;;;;;48.93;22.40;;;-1.10;99.90;;;;;;5069465;28;20187;-75
2022/12/13 02:20:05;;;;;;;51.60;22.00;;;-1.20;99.90;;;;;;5060506;28;20182;-78
2022/12/13 02:22:46;;;;;;;53.77;21.73;;;-1.20;99.90;;;;;;5068777;28;20178;-75
2022/12/13 02:25:39;;;;;;;45.50;20.80;;;-1.20;99.90;;;;;;5073180;28;20171;-76
2022/12/13 02:28:33;;;;;;;49.67;21.90;;;-1.20;99.90;;;;;;5075897;28;20163;-75
2022/12/13 02:31:04;;;;;;;49.30;21.40;;;-1.20;99.90;;;;;;5074270;28;20206;-75
2022/12/13 02:33:54;;;;;;;43.00;21.10;;;-1.20;99.90;;;;;;5072627;28;20206;-75
2022/12/13 02:36:31;;;;;;;40.80;19.93;;;-1.30;99.90;;;;;;5074487;28;20182;-75
2022/12/13 02:39:10;;;;;;;54.53;22.37;;;-1.30;99.90;;;;;;5091465;28;20175;-75
2022/12/13 02:41:41;;;;;;;46.20;21.47;;;-1.30;99.90;;;;;;5076201;28;20184;-75
2022/12/13 02:44:26;;;;;;;46.30;21.27;;;-1.30;99.90;;;;;;5072180;28;20174;-76
2022/12/13 02:47:02;;;;;;;48.20;20.50;;;-1.30;99.90;;;;;;5064302;28;20171;-75
2022/12/13 02:49:33;;;;;;;48.40;21.73;;;-1.30;99.90;;;;;;5074476;28;20179;-75
2022/12/13 02:52:00;;;;;;;49.50;21.87;;;-1.30;99.90;;;;;;5075518;28;20174;-76
2022/12/13 02:54:26;;;;;;;50.10;23.43;;;-1.30;99.90;;;;;;5070395;28;20291;-75
2022/12/13 02:56:59;;;;;;;53.17;25.60;;;-1.30;99.90;;;;;;5075472;28;20220;-75
2022/12/13 02:59:33;;;;;;;52.90;23.00;;;-1.30;99.90;;;;;;5067339;28;20193;-75
2022/12/13 03:02:16;;;;;;;53.03;22.63;;;-1.30;99.90;;;;;;5073691;28;20250;-75
2022/12/13 03:08:13;;;;;;;50.30;21.30;;;-1.30;99.90;;;;;;5078212;28;20171;-76
2022/12/13 03:11:05;;;;;;;53.57;22.43;;;-1.30;99.90;;;;;;5070922;28;20196;-75
2022/12/13 03:13:37;;;;;;;50.27;21.17;;;-1.30;99.90;;;;;;5055184;28;20231;-75
2022/12/13 03:16:11;;;;;;;49.27;21.40;;;-1.30;99.90;;;;;;5068024;28;20197;-75
2022/12/13 03:18:38;;;;;;;41.17;19.63;;;-1.30;99.90;;;;;;5075076;28;20310;-75
2022/12/13 03:21:07;;;;;;;49.23;21.03;;;-1.30;99.90;;;;;;5088301;28;20183;-80
2022/12/13 03:23:33;;;;;;;49.70;21.70;;;-1.30;99.90;;;;;;5071596;28;20642;-76
2022/12/13 03:26:12;;;;;;;47.20;20.87;;;-1.30;99.90;;;;;;5072706;28;20276;-76
2022/12/13 03:28:38;;;;;;;47.17;22.63;;;-1.30;99.90;;;;;;5075266;28;20175;-76
2022/12/13 03:31:05;;;;;;;48.63;22.17;;;-1.30;99.90;;;;;;5073960;28;20218;-76
2022/12/13 03:33:31;;;;;;;45.90;20.97;;;-1.40;99.90;;;;;;5071064;28;20202;-76
2022/12/13 03:35:57;;;;;;;45.13;20.17;;;-1.40;99.90;;;;;;5064514;28;20233;-76
2022/12/13 03:38:23;;;;;;;55.57;22.77;;;-1.40;99.90;;;;;;5057039;28;20198;-76
2022/12/13 03:40:57;;;;;;;45.63;20.77;;;-1.40;99.90;;;;;;5073075;28;20253;-76
2022/12/13 03:43:23;;;;;;;45.23;20.63;;;-1.40;99.90;;;;;;5072277;28;20185;-76
2022/12/13 03:45:51;;;;;;;46.27;20.73;;;-1.40;99.90;;;;;;5072589;28;20208;-76
2022/12/13 03:48:17;;;;;;;44.50;20.70;;;-1.40;99.90;;;;;;5066850;28;20249;-76
2022/12/13 03:50:42;;;;;;;46.80;19.73;;;-1.40;99.90;;;;;;5066365;28;20206;-76
2022/12/13 03:53:08;;;;;;;45.50;23.13;;;-1.40;99.90;;;;;;5070629;28;20246;-76
2022/12/13 03:55:34;;;;;;;43.10;22.93;;;-1.40;99.90;;;;;;5071640;28;20664;-76
2022/12/13 03:57:59;;;;;;;46.23;21.63;;;-1.40;99.90;;;;;;5074372;28;20178;-81
2022/12/13 04:00:25;;;;;;;57.27;24.40;;;-1.40;99.90;;;;;;5069395;28;20231;-76
2022/12/13 04:02:51;;;;;;;44.23;20.63;;;-1.40;99.90;;;;;;5054042;28;20270;-76
2022/12/13 04:05:17;;;;;;;44.67;19.20;;;-1.40;99.90;;;;;;5077734;28;20261;-76
2022/12/13 04:07:43;;;;;;;47.93;20.90;;;-1.40;99.90;;;;;;5094040;28;20541;-78
2022/12/13 04:10:09;;;;;;;57.03;21.60;;;-1.40;99.90;;;;;;5066774;28;20175;-76
2022/12/13 04:15:19;;;;;;;42.23;19.90;;;-1.40;99.90;;;;;;5082462;28;20194;-76
2022/12/13 04:17:45;;;;;;;42.57;18.87;;;-1.40;99.90;;;;;;5073925;28;20189;-76
2022/12/13 04:20:11;;;;;;;44.47;19.53;;;-1.50;99.90;;;;;;5071617;28;20178;-77
2022/12/13 04:22:36;;;;;;;47.43;20.67;;;-1.50;99.90;;;;;;5073619;28;20175;-78
2022/12/13 04:25:03;;;;;;;40.93;19.90;;;-1.50;99.90;;;;;;5070584;28;20209;-76
2022/12/13 04:27:29;;;;;;;38.27;19.10;;;-1.50;99.90;;;;;;5088348;28;20218;-76
2022/12/13 04:29:55;;;;;;;44.30;20.97;;;-1.50;99.90;;;;;;5071753;28;20257;-76
2022/12/13 04:32:21;;;;;;;40.90;19.87;;;-1.50;99.90;;;;;;5073605;28;20258;-76
2022/12/13 04:34:46;;;;;;;41.00;19.07;;;-1.40;99.90;;;;;;5056205;28;20677;-76
2022/12/13 04:37:12;;;;;;;42.50;19.57;;;-1.50;99.90;;;;;;5074021;28;20190;-76
2022/12/13 04:39:38;;;;;;;42.23;17.17;;;-1.50;99.90;;;;;;5063532;28;20199;-76
2022/12/13 04:42:04;;;;;;;38.47;18.87;;;-1.50;99.90;;;;;;5073686;28;20206;-76
2022/12/13 04:44:29;;;;;;;48.93;22.20;;;-1.50;99.90;;;;;;5072371;28;20182;-76
2022/12/13 04:46:56;;;;;;;40.83;19.37;;;-1.50;99.90;;;;;;5071098;28;20178;-76
2022/12/13 04:49:21;;;;;;;38.47;18.97;;;-1.50;99.90;;;;;;5070190;28;20619;-76
2022/12/13 04:51:47;;;;;;;34.07;18.63;;;-1.50;99.90;;;;;;5073032;28;20179;-76
2022/12/13 04:54:13;;;;;;;39.13;20.70;;;-1.50;99.90;;;;;;5072320;28;20234;-75
2022/12/13 04:56:39;;;;;;;39.67;18.50;;;-1.50;99.90;;;;;;5065590;28;20187;-75
2022/12/13 04:59:04;;;;;;;39.67;20.03;;;-1.50;99.90;;;;;;5076203;28;20634;-77
2022/12/13 05:01:30;;;;;;;44.03;20.43;;;-1.50;99.90;;;;;;5071868;28;20634;-75
2022/12/13 05:03:56;;;;;;;41.30;19.80;;;-1.50;99.90;;;;;;5072908;28;20646;-75
2022/12/13 05:06:22;;;;;;;37.17;17.60;;;-1.50;99.90;;;;;;5083552;28;20239;-74
2022/12/13 05:08:47;;;;;;;42.50;19.47;;;-1.50;99.90;;;;;;5085979;28;20187;-75
2022/12/13 05:11:13;;;;;;;44.00;19.83;;;-1.50;99.90;;;;;;5067668;28;20227;-77
2022/12/13 05:13:39;;;;;;;38.33;19.93;;;-1.50;99.90;;;;;;5072542;28;20678;-76
2022/12/13 05:16:07;;;;;;;47.60;20.90;;;-1.50;99.90;;;;;;5071562;28;20231;-76
2022/12/13 05:18:35;;;;;;;41.67;20.27;;;-1.50;99.90;;;;;;5072867;28;20178;-74
2022/12/13 05:21:03;;;;;;;41.23;19.57;;;-1.50;99.90;;;;;;5069980;28;20304;-80
2022/12/13 05:23:28;;;;;;;44.17;19.67;;;-1.50;99.90;;;;;;5062219;28;20191;-76
2022/12/13 05:25:54;;;;;;;41.63;19.90;;;-1.50;99.90;;;;;;5067541;28;20647;-76
2022/12/13 05:28:24;;;;;;;42.03;20.70;;;-1.60;99.90;;;;;;5053094;28;20222;-80
2022/12/13 05:30:50;;;;;;;40.50;21.33;;;-1.50;99.90;;;;;;5065364;28;20187;-76
2022/12/13 05:33:16;;;;;;;41.17;19.60;;;-1.50;99.90;;;;;;5071555;28;20253;-76
2022/12/13 05:35:42;;;;;;;36.77;18.50;;;-1.50;99.90;;;;;;5068740;28;20672;-75
2022/12/13 05:38:07;;;;;;;40.13;20.60;;;-1.60;99.90;;;;;;5072546;28;20179;-76
2022/12/13 05:40:33;;;;;;;39.57;19.73;;;-1.60;99.90;;;;;;5063257;28;20269;-75
2022/12/13 05:42:59;;;;;;;41.17;19.70;;;-1.60;99.90;;;;;;5071501;28;20547;-76
2022/12/13 05:45:25;;;;;;;37.33;19.27;;;-1.60;99.90;;;;;;5070512;28;20293;-76
2022/12/13 05:47:50;;;;;;;40.47;21.57;;;-1.60;99.90;;;;;;5070506;28;20186;-76
2022/12/13 05:50:17;;;;;;;42.97;19.57;;;-1.60;99.90;;;;;;5060625;28;20183;-76
2022/12/13 05:52:44;;;;;;;40.90;20.80;;;-1.60;99.90;;;;;;5067443;28;20315;-76
2022/12/13 05:55:10;;;;;;;39.40;19.00;;;-1.60;99.90;;;;;;5071189;28;20171;-74
2022/12/13 05:57:37;;;;;;;39.93;19.90;;;-1.60;99.90;;;;;;5071385;28;20221;-74
2022/12/13 06:00:05;;;;;;;43.83;20.20;;;-1.60;99.90;;;;;;5065006;28;20171;-81
2022/12/13 06:02:42;;;;;;;40.93;21.97;;;-1.60;99.90;;;;;;5075937;28;20186;-80
2022/12/13 06:05:09;;;;;;;43.47;24.23;;;-1.60;99.90;;;;;;5077692;28;20187;-75
2022/12/13 06:07:35;;;;;;;48.43;22.47;;;-1.60;99.90;;;;;;5075028;28;20198;-74
2022/12/13 06:10:02;;;;;;;52.60;23.53;;;-1.60;99.90;;;;;;5073873;28;20262;-75
2022/12/13 06:12:27;;;;;;;41.47;19.93;;;-1.70;99.90;;;;;;5074424;28;20178;-74
2022/12/13 06:14:53;;;;;;;39.63;18.83;;;-1.70;99.90;;;;;;5070818;28;20221;-75
2022/12/13 06:17:23;;;;;;;41.17;20.23;;;-1.80;99.90;;;;;;5068085;28;20183;-74
2022/12/13 06:19:50;;;;;;;44.73;21.57;;;-1.80;99.90;;;;;;5073116;28;20242;-75
2022/12/13 06:22:17;;;;;;;44.00;21.33;;;-1.80;99.90;;;;;;5074795;28;20177;-74
2022/12/13 06:24:43;;;;;;;42.33;21.10;;;-1.80;99.90;;;;;;5073218;28;20183;-75
2022/12/13 06:27:09;;;;;;;42.00;20.83;;;-1.80;99.90;;;;;;5072304;28;20270;-76
2022/12/13 06:29:35;;;;;;;44.07;21.10;;;-1.90;99.90;;;;;;5068937;28;20231;-77
2022/12/13 06:32:02;;;;;;;45.23;20.20;;;-1.90;99.90;;;;;;5074440;28;20273;-76
2022/12/13 06:34:32;;;;;;;41.20;20.47;;;-1.90;99.90;;;;;;5072203;28;20215;-74
2022/12/13 06:36:58;;;;;;;39.07;19.07;;;-1.90;99.90;;;;;;5075787;28;20170;-75
2022/12/13 06:39:24;;;;;;;46.27;20.60;;;-1.90;99.90;;;;;;5074710;28;21079;-75
2022/12/13 06:41:49;;;;;;;41.73;21.63;;;-1.90;99.90;;;;;;5074717;28;20269;-74
2022/12/13 06:44:15;;;;;;;41.40;20.57;;;-1.90;99.90;;;;;;5074108;28;20226;-83
2022/12/13 06:46:41;;;;;;;42.57;20.57;;;-1.90;99.90;;;;;;5091602;28;20288;-74
2022/12/13 06:49:07;;;;;;;47.90;21.20;;;-1.90;99.90;;;;;;5056202;28;20183;-75
2022/12/13 06:51:33;;;;;;;41.10;21.73;;;-1.90;99.90;;;;;;5074698;28;20190;-75
2022/12/13 06:54:03;;;;;;;50.67;21.87;;;-1.90;99.90;;;;;;5075358;28;20252;-75
2022/12/13 06:56:30;;;;;;;40.93;20.00;;;-1.90;99.90;;;;;;5072124;28;20186;-75
2022/12/13 06:58:57;;;;;;;46.03;21.27;;;-1.90;99.90;;;;;;5073616;28;20183;-74
2022/12/13 07:01:23;;;;;;;44.17;19.67;;;-1.90;99.90;;;;;;5070757;28;20252;-76
2022/12/13 07:03:49;;;;;;;45.07;19.30;;;-1.90;99.90;;;;;;5072702;28;20531;-75
2022/12/13 07:06:22;;;;;;;41.77;19.77;;;-1.90;99.90;;;;;;5085425;28;20178;-74
2022/12/13 07:08:50;;;;;;;40.87;19.83;;;-1.90;99.90;;;;;;5073533;28;20179;-75
2022/12/13 07:11:18;;;;;;;43.23;19.57;;;-1.90;99.90;;;;;;5071742;28;20178;-74
2022/12/13 07:13:44;;;;;;;38.07;19.93;;;-1.90;99.90;;;;;;5072228;28;20304;-78
2022/12/13 07:16:10;;;;;;;43.20;21.13;;;-2.00;99.90;;;;;;5072978;28;20270;-74
2022/12/13 07:18:37;;;;;;;43.87;22.87;;;-2.00;99.90;;;;;;5074763;28;20657;-74
2022/12/13 07:21:07;;;;;;;40.37;19.93;;;-1.90;99.90;;;;;;5072899;28;20666;-74
2022/12/13 07:23:34;;;;;;;39.93;18.80;;;-1.90;99.90;;;;;;5071020;28;20642;-74
2022/12/13 07:26:01;;;;;;;48.93;21.90;;;-1.90;99.90;;;;;;5083422;28;20216;-73
2022/12/13 07:28:27;;;;;;;39.90;19.77;;;-1.90;99.90;;;;;;5074798;28;20177;-75
2022/12/13 07:30:53;;;;;;;43.73;21.67;;;-1.90;99.90;;;;;;5072964;28;20191;-74
2022/12/13 07:33:18;;;;;;;40.67;20.53;;;-1.90;99.90;;;;;;5090170;28;20587;-73
2022/12/13 07:35:44;;;;;;;43.80;21.77;;;-1.90;99.90;;;;;;5070834;28;20243;-78
2022/12/13 07:38:11;;;;;;;50.23;20.83;;;-1.90;99.90;;;;;;5054344;28;20178;-83
2022/12/13 07:40:38;;;;;;;45.80;22.93;;;-1.90;99.90;;;;;;5068549;28;20204;-74
2022/12/13 07:43:05;;;;;;;55.17;25.83;;;-1.90;99.90;;;;;;5054260;28;20181;-73
2022/12/13 07:45:31;;;;;;;42.13;20.73;;;-1.90;99.90;;;;;;5059924;28;20701;-73
2022/12/13 07:47:58;;;;;;;48.90;22.73;;;-1.80;99.90;;;;;;5072990;28;20187;-77
2022/12/13 07:50:23;;;;;;;44.50;20.53;;;-1.80;99.90;;;;;;5072564;28;20187;-73
2022/12/13 07:52:50;;;;;;;46.73;20.17;;;-1.80;99.90;;;;;;5069012;28;20194;-75
2022/12/13 07:55:17;;;;;;;43.33;19.93;;;-1.80;99.90;;;;;;5067956;28;20622;-74
2022/12/13 07:57:44;;;;;;;44.20;19.37;;;-1.70;99.90;;;;;;5074349;28;20262;-74
2022/12/13 08:00:10;;;;;;;46.50;21.13;;;-1.70;99.90;;;;;;5069625;28;20711;-73
2022/12/13 08:02:40;;;;;;;44.33;20.67;;;-1.70;99.90;;;;;;5072649;28;20638;-74
2022/12/13 08:05:06;;;;;;;47.80;19.70;;;-1.70;99.90;;;;;;5071345;28;20526;-76
2022/12/13 08:07:32;;;;;;;49.13;22.40;;;-1.70;99.90;;;;;;5066993;28;20179;-75
2022/12/13 08:09:58;;;;;;;45.43;21.47;;;-1.60;99.90;;;;;;5059972;28;20232;-77
2022/12/13 08:12:23;;;;;;;41.30;18.97;;;-1.60;99.90;;;;;;5072240;28;20646;-77
2022/12/13 08:14:50;;;;;;;48.73;20.60;;;-1.50;99.90;;;;;;5086170;28;20218;-75
2022/12/13 08:17:15;;;;;;;45.93;20.93;;;-1.50;99.90;;;;;;5064624;28;20181;-74
2022/12/13 08:19:41;;;;;;;42.50;21.40;;;-1.50;99.90;;;;;;5071964;28;20179;-75
2022/12/13 08:22:10;;;;;;;47.30;22.77;;;-1.40;99.90;;;;;;5071577;28;20538;-75
2022/12/13 08:24:36;;;;;;;48.00;22.57;;;-1.40;99.90;;;;;;5068082;28;20316;-74
2022/12/13 08:27:02;;;;;;;47.97;22.53;;;-1.40;99.90;;;;;;5072481;28;20313;-76
2022/12/13 08:29:29;;;;;;;47.47;21.20;;;-1.30;99.90;;;;;;5071992;28;20179;-74
2022/12/13 08:31:55;;;;;;;49.97;21.87;;;-1.30;99.90;;;;;;5073085;28;20193;-74
2022/12/13 08:34:20;;;;;;;49.13;21.97;;;-1.30;99.90;;;;;;5069929;28;20210;-77
2022/12/13 08:36:46;;;;;;;47.33;20.13;;;-1.20;99.90;;;;;;5073744;28;20190;-75
2022/12/13 08:39:12;;;;;;;42.77;20.40;;;-1.20;99.90;;;;;;5073096;28;20189;-77
2022/12/13 08:41:37;;;;;;;46.63;21.60;;;-1.20;99.90;;;;;;5073530;28;20189;-75
2022/12/13 08:44:03;;;;;;;49.60;21.67;;;-1.10;99.90;;;;;;5063074;28;20187;-78
2022/12/13 08:46:29;;;;;;;48.20;23.53;;;-1.10;99.90;;;;;;5073078;28;20182;-74
2022/12/13 08:48:55;;;;;;;48.20;24.60;;;-1.00;99.90;;;;;;5073442;28;20278;-75
2022/12/13 08:51:24;;;;;;;44.40;22.67;;;-0.90;99.90;;;;;;5071611;28;20185;-76
2022/12/13 08:53:50;;;;;;;46.90;24.17;;;-0.80;99.90;;;;;;5072211;28;20217;-76
2022/12/13 08:56:20;;;;;;;40.07;20.53;;;-0.80;99.90;;;;;;5056097;28;20187;-75
2022/12/13 08:58:50;;;;;;;51.17;23.57;;;-0.60;99.90;;;;;;5058311;28;20657;-75
2022/12/13 09:01:16;;;;;;;56.00;24.40;;;-0.40;99.90;;;;;;5072546;28;20185;-75
2022/12/13 09:03:42;;;;;;;48.67;25.27;;;-0.20;99.90;;;;;;5072273;28;20214;-75
2022/12/13 09:06:10;;;;;;;48.20;24.67;;;0.00;99.90;;;;;;5072854;28;20221;-75
2022/12/13 09:08:37;;;;;;;52.53;25.47;;;0.20;99.90;;;;;;5071882;28;20176;-75
2022/12/13 09:11:04;;;;;;;49.67;24.17;;;0.40;99.90;;;;;;5067343;28;20239;-76
2022/12/13 09:13:33;;;;;;;46.70;25.20;;;0.50;99.90;;;;;;5072987;28;20206;-76
2022/12/13 09:16:05;;;;;;;44.83;23.73;;;0.70;99.90;;;;;;5071241;28;20198;-75
2022/12/13 09:18:31;;;;;;;45.07;24.50;;;0.80;99.90;;;;;;5073320;28;20225;-76
2022/12/13 09:20:57;;;;;;;48.50;24.77;;;1.00;99.90;;;;;;5057842;28;20191;-81
2022/12/13 09:23:23;;;;;;;48.75;23.88;;;1.00;99.90;;;;;;5059177;28;20216;-76
2022/12/13 09:25:56;;;;;;;47.13;25.33;;;1.10;99.90;;;;;;5071108;28;20677;-77
2022/12/13 09:28:22;;;;;;;46.53;24.30;;;1.10;99.90;;;;;;5073140;28;20163;-78
2022/12/13 09:30:48;;;;;;;45.50;24.48;;;1.10;99.90;;;;;;5058940;28;20740;-75
2022/12/13 09:33:14;;;;;;;48.47;24.33;;;1.30;99.90;;;;;;5052649;28;20268;-75
2022/12/13 09:35:40;;;;;;;46.30;24.27;;;1.30;99.90;;;;;;5058484;28;20273;-77
2022/12/13 09:38:06;;;;;;;45.70;25.02;;;1.50;99.90;;;;;;5072724;28;20222;-76
2022/12/13 09:40:33;;;;;;;43.30;24.15;;;1.60;99.90;;;;;;5071782;28;20187;-76
2022/12/13 09:43:01;;;;;;;44.78;23.92;;;1.70;99.90;;;;;;5072819;28;20170;-76
2022/12/13 09:45:28;;;;;;;44.08;24.50;;;1.70;99.90;;;;;;5081171;28;20321;-81
2022/12/13 09:47:55;;;;;;;46.92;23.23;;;1.80;99.90;;;;;;5072426;28;20190;-76
2022/12/13 09:50:27;;;;;;;41.00;23.23;;;2.00;99.90;;;;;;5062538;28;20178;-77
2022/12/13 09:52:53;;;;;;;44.65;22.52;;;2.00;99.90;;;;;;5052821;28;20170;-77
2022/12/13 09:55:21;;;;;;;41.85;23.33;;;2.00;99.90;;;;;;5059672;28;20179;-81
2022/12/13 09:57:48;;;;;;;45.33;23.40;;;2.10;99.90;;;;;;5082471;28;20175;-77
2022/12/13 10:00:18;;;;;;;40.10;22.77;;;2.10;99.90;;;;;;5068601;28;20210;-78
2022/12/13 10:02:47;;;;;;;37.15;22.83;;;2.10;99.90;;;;;;5071921;28;20205;-76
2022/12/13 10:05:27;;;;;;;46.33;22.75;;;2.20;99.90;;;;;;5071636;28;20185;-76
2022/12/13 10:07:56;;;;;;;43.65;23.35;;;2.20;99.90;;;;;;5072627;28;20185;-78
2022/12/13 10:10:22;;;;;;;45.75;24.33;;;2.20;99.90;;;;;;5069976;28;20175;-76
2022/12/13 10:13:07;;;;;;;45.33;22.60;;;2.20;99.90;;;;;;5072051;28;20175;-76
2022/12/13 10:15:37;;;;;;;42.38;23.45;;;2.20;99.90;;;;;;5071556;28;20186;-77
2022/12/13 10:18:05;;;;;;;43.88;24.30;;;2.20;99.90;;;;;;5064938;28;20176;-75
2022/12/13 10:20:33;;;;;;;43.15;23.52;;;2.30;99.90;;;;;;5066446;28;20179;-81
2022/12/13 10:22:58;;;;;;;42.70;23.42;;;2.30;99.90;;;;;;5057856;28;20186;-77
2022/12/13 10:25:48;;;;;;;46.28;22.95;;;2.30;99.90;;;;;;5071813;28;20228;-79
2022/12/13 10:28:23;;;;;;;43.45;23.52;;;2.30;99.90;;;;;;5070407;28;20186;-76
2022/12/13 10:30:50;;;;;;;40.60;22.05;;;2.30;99.90;;;;;;5071872;28;20186;-76
2022/12/13 10:33:23;;;;;;;44.67;23.95;;;2.40;99.90;;;;;;5080713;28;20294;-77
2022/12/13 10:36:29;;;;;;;40.83;23.60;;;2.60;99.90;;;;;;5068757;28;20217;-78
2022/12/13 10:38:55;;;;;;;37.97;22.10;;;2.80;99.90;;;;;;5058496;28;20210;-76
2022/12/13 10:41:28;;;;;;;44.03;23.52;;;2.90;99.90;;;;;;5064264;28;20642;-77
2022/12/13 10:44:16;;;;;;;42.55;24.30;;;3.00;99.90;;;;;;5068784;28;20176;-82
2022/12/13 10:46:51;;;;;;;44.05;23.65;;;3.30;99.90;;;;;;5065401;28;20232;-77
2022/12/13 10:49:21;;;;;;;38.30;21.55;;;3.50;99.90;;;;;;5076486;28;20178;-76
2022/12/13 10:51:49;;;;;;;46.75;23.63;;;3.70;99.90;;;;;;5075740;28;20646;-76
2022/12/13 10:54:36;;;;;;;44.67;24.27;;;4.10;99.90;;;;;;5063023;28;20224;-76
2022/12/13 10:57:03;;;;;;;41.97;22.95;;;4.30;99.90;;;;;;5075548;28;20693;-75
2022/12/13 10:59:37;;;;;;;37.13;22.52;;;4.50;99.90;;;;;;5075726;28;20269;-75
2022/12/13 11:02:31;;;;;;;42.42;23.38;;;4.70;99.90;;;;;;5075819;28;20186;-77
2022/12/13 11:04:58;;;;;;;34.85;21.75;;;5.00;99.90;;;;;;5076280;28;20167;-77
2022/12/13 11:07:30;;;;;;;39.70;22.83;;;5.10;99.90;;;;;;5066452;28;20175;-76
2022/12/13 11:09:57;;;;;;;44.42;24.58;;;5.20;99.90;;;;;;5073069;28;20206;-76
2022/12/13 11:12:26;;;;;;;39.20;22.15;;;5.30;99.90;;;;;;5075575;28;20185;-76
2022/12/13 11:15:05;;;;;;;37.30;21.58;;;5.40;99.90;;;;;;5075192;28;20205;-75
2022/12/13 11:17:36;;;;;;;35.15;21.90;;;5.50;99.90;;;;;;5067219;28;20858;-80
2022/12/13 11:20:06;;;;;;;40.13;22.05;;;5.60;99.90;;;;;;5057814;28;20171;-76
2022/12/13 11:22:36;;;;;;;38.33;21.48;;;5.70;99.90;;;;;;5071041;28;20261;-75
2022/12/13 11:25:04;;;;;;;47.13;25.27;;;5.70;99.90;;;;;;5074923;28;20630;-75
2022/12/13 11:27:43;;;;;;;36.55;22.15;;;5.70;99.90;;;;;;5074957;28;20892;-77
2022/12/13 11:30:15;;;;;;;34.20;21.02;;;5.90;99.90;;;;;;5075529;28;20167;-79
2022/12/13 11:33:11;;;;;;;36.45;20.73;;;6.00;99.90;;;;;;5071962;28;20186;-76
2022/12/13 11:35:55;;;;;;;41.70;21.83;;;6.10;99.90;;;;;;5075602;28;20216;-77
2022/12/13 11:38:38;;;;;;;37.53;20.77;;;6.30;99.90;;;;;;5073802;28;20159;-77
2022/12/13 11:41:25;;;;;;;32.50;20.17;;;6.30;99.90;;;;;;5075187;28;20182;-77
2022/12/13 11:44:08;;;;;;;35.22;20.63;;;6.40;99.90;;;;;;5085106;28;20186;-77
2022/12/13 11:46:53;;;;;;;34.60;20.75;;;6.60;99.90;;;;;;5075222;28;20175;-77
2022/12/13 11:49:41;;;;;;;36.58;19.33;;;6.60;99.90;;;;;;5058194;28;20182;-78
2022/12/13 11:52:16;;;;;;;34.85;20.08;;;6.70;99.90;;;;;;5059468;28;20218;-78
2022/12/13 11:55:02;;;;;;;31.80;19.08;;;6.80;99.90;;;;;;5072859;28;20202;-77
2022/12/13 11:57:45;;;;;;;32.40;19.30;;;6.80;99.90;;;;;;5075754;28;20166;-77
2022/12/13 12:00:30;;;;;;;30.02;18.15;;;6.80;99.90;;;;;;5080597;28;20634;-77
2022/12/13 12:03:05;;;;;;;29.27;17.73;;;6.90;99.90;;;;;;5072782;28;20179;-77
2022/12/13 12:05:35;;;;;;;29.42;16.98;;;6.90;99.90;;;;;;5070811;28;20225;-76
2022/12/13 12:08:39;;;;;;;27.23;16.00;;;7.00;99.90;;;;;;5074149;28;20236;-76
2022/12/13 12:11:22;;;;;;;29.75;15.80;;;7.00;99.90;;;;;;5074254;28;20187;-75
2022/12/13 12:13:53;;;;;;;28.13;17.38;;;7.00;99.90;;;;;;5074223;28;20205;-75
2022/12/13 12:16:41;;;;;;;28.83;16.52;;;7.10;99.90;;;;;;5068204;28;20182;-76
2022/12/13 12:19:13;;;;;;;25.77;16.50;;;7.20;99.90;;;;;;5069349;28;20183;-76
2022/12/13 12:21:59;;;;;;;29.05;15.43;;;7.20;99.90;;;;;;5075058;28;20220;-76
2022/12/13 12:24:44;;;;;;;27.15;16.20;;;7.20;99.90;;;;;;5071683;28;20252;-78
2022/12/13 12:27:23;;;;;;;24.58;15.35;;;7.10;99.90;;;;;;5061827;28;20214;-82
2022/12/13 12:30:10;;;;;;;26.83;15.68;;;7.10;99.90;;;;;;5068046;28;20182;-76
2022/12/13 12:33:07;;;;;;;27.58;16.27;;;7.00;99.90;;;;;;5074631;28;20626;-76
2022/12/13 12:36:02;;;;;;;26.65;15.38;;;7.00;99.90;;;;;;5074958;28;20175;-77
2022/12/13 12:38:49;;;;;;;26.05;15.80;;;7.00;99.90;;;;;;5074892;28;20203;-77
2022/12/13 12:41:48;;;;;;;22.98;14.73;;;6.90;99.90;;;;;;5059859;28;20276;-76
2022/12/13 12:44:42;;;;;;;21.75;14.77;;;6.90;99.90;;;;;;5000744;28;20201;-75
2022/12/13 12:47:40;;;;;;;26.70;14.90;;;6.90;99.90;;;;;;5073992;28;20178;-77
2022/12/13 12:50:32;;;;;;;24.92;15.07;;;7.00;99.90;;;;;;5030482;28;20188;-76
2022/12/13 12:53:06;;;;;;;26.30;15.13;;;6.90;99.90;;;;;;5075681;28;20189;-76